sensor_id;sensor_type;location;lat;lon;timestamp;P1;durP1;ratioP1;P2;durP2;ratioP2
22357;SDS011;11346;50.150;8.150;2022-07-17T00:01:05;4.03;;;2.27;;
22357;SDS011;11346;50.150;8.150;2022-07-17T00:03:33;10.57;;;3.20;;
22357;SDS011;11346;50.150;8.150;2022-07-17T00:06:00;6.97;;;3.37;;
22357;SDS011;11346;50.150;8.150;2022-07-17T00:08:27;5.37;;;3.03;;
22357;SDS011;11346;50.150;8.150;2022-07-17T00:10:56;7.63;;;3.03;;
22357;SDS011;11346;50.150;8.150;2022-07-17T00:13:23;8.13;;;2.60;;
22357;SDS011;11346;50.150;8.150;2022-07-17T00:15:51;4.77;;;2.83;;
22357;SDS011;11346;50.150;8.150;2022-07-17T00:18:18;4.63;;;3.23;;
22357;SDS011;11346;50.150;8.150;2022-07-17T00:20:46;3.87;;;2.83;;
22357;SDS011;11346;50.150;8.150;2022-07-17T00:23:13;4.03;;;2.93;;
22357;SDS011;11346;50.150;8.150;2022-07-17T00:25:40;5.67;;;2.70;;
22357;SDS011;11346;50.150;8.150;2022-07-17T00:28:07;3.93;;;2.80;;
22357;SDS011;11346;50.150;8.150;2022-07-17T00:30:34;5.23;;;2.80;;
22357;SDS011;11346;50.150;8.150;2022-07-17T00:33:04;3.83;;;2.33;;
22357;SDS011;11346;50.150;8.150;2022-07-17T00:35:31;4.43;;;2.53;;
22357;SDS011;11346;50.150;8.150;2022-07-17T00:37:58;3.97;;;2.67;;
22357;SDS011;11346;50.150;8.150;2022-07-17T00:40:26;10.43;;;2.70;;
22357;SDS011;11346;50.150;8.150;2022-07-17T00:42:53;2.57;;;2.30;;
22357;SDS011;11346;50.150;8.150;2022-07-17T00:45:20;5.03;;;2.30;;
22357;SDS011;11346;50.150;8.150;2022-07-17T00:47:51;8.60;;;2.47;;
22357;SDS011;11346;50.150;8.150;2022-07-17T00:50:20;3.13;;;2.00;;
22357;SDS011;11346;50.150;8.150;2022-07-17T00:52:48;2.87;;;2.37;;
22357;SDS011;11346;50.150;8.150;2022-07-17T00:55:15;5.30;;;2.43;;
22357;SDS011;11346;50.150;8.150;2022-07-17T00:57:43;3.93;;;2.20;;
22357;SDS011;11346;50.150;8.150;2022-07-17T01:00:12;5.87;;;2.20;;
22357;SDS011;11346;50.150;8.150;2022-07-17T01:02:39;3.87;;;1.97;;
22357;SDS011;11346;50.150;8.150;2022-07-17T01:05:07;3.23;;;2.17;;
22357;SDS011;11346;50.150;8.150;2022-07-17T01:07:35;8.73;;;2.23;;
22357;SDS011;11346;50.150;8.150;2022-07-17T01:10:02;4.77;;;2.50;;
22357;SDS011;11346;50.150;8.150;2022-07-17T01:12:30;4.90;;;2.43;;
22357;SDS011;11346;50.150;8.150;2022-07-17T01:14:57;6.07;;;2.43;;
22357;SDS011;11346;50.150;8.150;2022-07-17T01:17:24;3.97;;;2.27;;
22357;SDS011;11346;50.150;8.150;2022-07-17T01:19:51;2.23;;;2.00;;
22357;SDS011;11346;50.150;8.150;2022-07-17T01:22:20;2.43;;;2.20;;
22357;SDS011;11346;50.150;8.150;2022-07-17T01:24:47;3.70;;;2.47;;
22357;SDS011;11346;50.150;8.150;2022-07-17T01:27:15;9.17;;;2.30;;
22357;SDS011;11346;50.150;8.150;2022-07-17T01:29:42;6.23;;;2.37;;
22357;SDS011;11346;50.150;8.150;2022-07-17T01:32:09;3.47;;;2.20;;
22357;SDS011;11346;50.150;8.150;2022-07-17T01:34:36;3.57;;;2.27;;
22357;SDS011;11346;50.150;8.150;2022-07-17T01:37:03;4.67;;;2.13;;
22357;SDS011;11346;50.150;8.150;2022-07-17T01:39:32;5.73;;;2.60;;
22357;SDS011;11346;50.150;8.150;2022-07-17T01:42:19;5.50;;;2.47;;
22357;SDS011;11346;50.150;8.150;2022-07-17T01:44:46;2.30;;;2.10;;
22357;SDS011;11346;50.150;8.150;2022-07-17T01:47:13;2.47;;;2.00;;
22357;SDS011;11346;50.150;8.150;2022-07-17T01:49:42;4.33;;;2.50;;
22357;SDS011;11346;50.150;8.150;2022-07-17T01:52:10;4.97;;;1.90;;
22357;SDS011;11346;50.150;8.150;2022-07-17T01:54:38;3.10;;;1.80;;
22357;SDS011;11346;50.150;8.150;2022-07-17T01:57:06;4.47;;;2.20;;
22357;SDS011;11346;50.150;8.150;2022-07-17T01:59:33;2.80;;;2.00;;
22357;SDS011;11346;50.150;8.150;2022-07-17T02:02:00;6.50;;;2.10;;
22357;SDS011;11346;50.150;8.150;2022-07-17T02:04:28;1.97;;;1.70;;
22357;SDS011;11346;50.150;8.150;2022-07-17T02:06:55;3.57;;;2.40;;
22357;SDS011;11346;50.150;8.150;2022-07-17T02:09:22;6.43;;;2.37;;
22357;SDS011;11346;50.150;8.150;2022-07-17T02:11:51;4.53;;;2.20;;
22357;SDS011;11346;50.150;8.150;2022-07-17T02:14:18;3.77;;;2.27;;
22357;SDS011;11346;50.150;8.150;2022-07-17T02:16:45;2.67;;;2.27;;
22357;SDS011;11346;50.150;8.150;2022-07-17T02:19:13;4.40;;;2.30;;
22357;SDS011;11346;50.150;8.150;2022-07-17T02:21:40;2.53;;;2.00;;
22357;SDS011;11346;50.150;8.150;2022-07-17T02:24:07;3.10;;;2.10;;
22357;SDS011;11346;50.150;8.150;2022-07-17T02:26:34;2.90;;;2.00;;
22357;SDS011;11346;50.150;8.150;2022-07-17T02:29:02;3.07;;;2.00;;
22357;SDS011;11346;50.150;8.150;2022-07-17T02:31:30;2.53;;;1.73;;
22357;SDS011;11346;50.150;8.150;2022-07-17T02:33:57;4.13;;;1.97;;
22357;SDS011;11346;50.150;8.150;2022-07-17T02:36:24;4.70;;;2.27;;
22357;SDS011;11346;50.150;8.150;2022-07-17T02:38:51;3.37;;;2.20;;
22357;SDS011;11346;50.150;8.150;2022-07-17T02:41:19;3.23;;;2.40;;
22357;SDS011;11346;50.150;8.150;2022-07-17T02:43:46;2.70;;;1.80;;
22357;SDS011;11346;50.150;8.150;2022-07-17T02:46:14;3.03;;;1.77;;
22357;SDS011;11346;50.150;8.150;2022-07-17T02:48:42;6.43;;;1.60;;
22357;SDS011;11346;50.150;8.150;2022-07-17T02:51:09;1.80;;;1.70;;
22357;SDS011;11346;50.150;8.150;2022-07-17T02:53:36;2.13;;;1.93;;
22357;SDS011;11346;50.150;8.150;2022-07-17T02:56:04;5.20;;;1.70;;
22357;SDS011;11346;50.150;8.150;2022-07-17T02:58:31;1.77;;;1.67;;
22357;SDS011;11346;50.150;8.150;2022-07-17T03:00:58;4.00;;;2.10;;
22357;SDS011;11346;50.150;8.150;2022-07-17T03:03:27;5.87;;;1.73;;
22357;SDS011;11346;50.150;8.150;2022-07-17T03:05:54;7.10;;;1.80;;
22357;SDS011;11346;50.150;8.150;2022-07-17T03:08:21;4.50;;;2.00;;
22357;SDS011;11346;50.150;8.150;2022-07-17T03:10:48;4.63;;;2.00;;
22357;SDS011;11346;50.150;8.150;2022-07-17T03:13:15;3.50;;;1.60;;
22357;SDS011;11346;50.150;8.150;2022-07-17T03:15:42;1.67;;;1.43;;
22357;SDS011;11346;50.150;8.150;2022-07-17T03:18:09;4.80;;;1.90;;
22357;SDS011;11346;50.150;8.150;2022-07-17T03:20:38;2.67;;;1.70;;
22357;SDS011;11346;50.150;8.150;2022-07-17T03:23:05;2.47;;;1.77;;
22357;SDS011;11346;50.150;8.150;2022-07-17T03:25:32;1.93;;;1.83;;
22357;SDS011;11346;50.150;8.150;2022-07-17T03:27:59;5.63;;;1.80;;
22357;SDS011;11346;50.150;8.150;2022-07-17T03:30:27;4.33;;;1.70;;
22357;SDS011;11346;50.150;8.150;2022-07-17T03:32:54;2.67;;;1.70;;
22357;SDS011;11346;50.150;8.150;2022-07-17T03:35:21;2.00;;;1.77;;
22357;SDS011;11346;50.150;8.150;2022-07-17T03:37:49;2.20;;;1.67;;
22357;SDS011;11346;50.150;8.150;2022-07-17T03:40:16;3.10;;;2.10;;
22357;SDS011;11346;50.150;8.150;2022-07-17T03:42:44;5.43;;;1.80;;
22357;SDS011;11346;50.150;8.150;2022-07-17T03:45:11;5.17;;;1.80;;
22357;SDS011;11346;50.150;8.150;2022-07-17T03:47:38;2.80;;;1.90;;
22357;SDS011;11346;50.150;8.150;2022-07-17T03:50:05;3.63;;;1.90;;
22357;SDS011;11346;50.150;8.150;2022-07-17T03:52:32;5.77;;;1.93;;
22357;SDS011;11346;50.150;8.150;2022-07-17T03:55:01;5.07;;;2.20;;
22357;SDS011;11346;50.150;8.150;2022-07-17T03:57:28;3.43;;;1.90;;
22357;SDS011;11346;50.150;8.150;2022-07-17T03:59:55;2.93;;;1.80;;
22357;SDS011;11346;50.150;8.150;2022-07-17T04:02:22;2.10;;;1.60;;
22357;SDS011;11346;50.150;8.150;2022-07-17T04:04:49;4.77;;;2.07;;
22357;SDS011;11346;50.150;8.150;2022-07-17T04:07:16;2.77;;;1.70;;
22357;SDS011;11346;50.150;8.150;2022-07-17T04:09:53;6.27;;;2.10;;
22357;SDS011;11346;50.150;8.150;2022-07-17T04:12:22;2.00;;;1.90;;
22357;SDS011;11346;50.150;8.150;2022-07-17T04:14:49;1.90;;;1.80;;
22357;SDS011;11346;50.150;8.150;2022-07-17T04:17:17;4.50;;;2.00;;
22357;SDS011;11346;50.150;8.150;2022-07-17T04:19:44;4.47;;;2.00;;
22357;SDS011;11346;50.150;8.150;2022-07-17T04:22:11;2.67;;;1.87;;
22357;SDS011;11346;50.150;8.150;2022-07-17T04:24:38;2.40;;;1.90;;
22357;SDS011;11346;50.150;8.150;2022-07-17T04:27:05;1.83;;;1.73;;
22357;SDS011;11346;50.150;8.150;2022-07-17T04:29:34;5.57;;;2.20;;
22357;SDS011;11346;50.150;8.150;2022-07-17T04:32:01;4.40;;;2.17;;
22357;SDS011;11346;50.150;8.150;2022-07-17T04:34:29;2.43;;;1.70;;
22357;SDS011;11346;50.150;8.150;2022-07-17T04:36:57;4.43;;;1.70;;
22357;SDS011;11346;50.150;8.150;2022-07-17T04:39:24;2.47;;;2.00;;
22357;SDS011;11346;50.150;8.150;2022-07-17T04:41:51;2.37;;;1.70;;
22357;SDS011;11346;50.150;8.150;2022-07-17T04:44:18;1.83;;;1.73;;
22357;SDS011;11346;50.150;8.150;2022-07-17T04:46:47;3.67;;;1.90;;
22357;SDS011;11346;50.150;8.150;2022-07-17T04:49:14;4.17;;;2.00;;
22357;SDS011;11346;50.150;8.150;2022-07-17T04:51:41;1.90;;;1.60;;
22357;SDS011;11346;50.150;8.150;2022-07-17T04:54:08;2.67;;;1.70;;
22357;SDS011;11346;50.150;8.150;2022-07-17T04:56:35;6.13;;;2.17;;
22357;SDS011;11346;50.150;8.150;2022-07-17T04:59:03;2.00;;;1.40;;
22357;SDS011;11346;50.150;8.150;2022-07-17T05:01:30;8.47;;;2.33;;
22357;SDS011;11346;50.150;8.150;2022-07-17T05:03:59;2.53;;;1.67;;
22357;SDS011;11346;50.150;8.150;2022-07-17T05:06:27;4.43;;;1.90;;
22357;SDS011;11346;50.150;8.150;2022-07-17T05:08:54;2.70;;;2.03;;
22357;SDS011;11346;50.150;8.150;2022-07-17T05:11:21;7.20;;;2.20;;
22357;SDS011;11346;50.150;8.150;2022-07-17T05:13:48;4.40;;;2.07;;
22357;SDS011;11346;50.150;8.150;2022-07-17T05:16:16;3.50;;;1.70;;
22357;SDS011;11346;50.150;8.150;2022-07-17T05:18:43;4.70;;;1.80;;
22357;SDS011;11346;50.150;8.150;2022-07-17T05:21:11;4.37;;;1.90;;
22357;SDS011;11346;50.150;8.150;2022-07-17T05:23:39;5.57;;;1.60;;
22357;SDS011;11346;50.150;8.150;2022-07-17T05:26:06;3.40;;;2.00;;
22357;SDS011;11346;50.150;8.150;2022-07-17T05:28:37;3.87;;;1.90;;
22357;SDS011;11346;50.150;8.150;2022-07-17T05:31:04;5.20;;;1.83;;
22357;SDS011;11346;50.150;8.150;2022-07-17T05:33:31;4.30;;;1.80;;
22357;SDS011;11346;50.150;8.150;2022-07-17T05:35:59;1.90;;;1.60;;
22357;SDS011;11346;50.150;8.150;2022-07-17T05:38:27;3.57;;;2.10;;
22357;SDS011;11346;50.150;8.150;2022-07-17T05:40:54;6.57;;;1.87;;
22357;SDS011;11346;50.150;8.150;2022-07-17T05:43:21;1.73;;;1.63;;
22357;SDS011;11346;50.150;8.150;2022-07-17T05:45:48;3.13;;;1.70;;
22357;SDS011;11346;50.150;8.150;2022-07-17T05:48:15;3.90;;;1.90;;
22357;SDS011;11346;50.150;8.150;2022-07-17T05:50:43;3.63;;;1.77;;
22357;SDS011;11346;50.150;8.150;2022-07-17T05:53:10;3.90;;;2.00;;
22357;SDS011;11346;50.150;8.150;2022-07-17T05:55:40;4.73;;;2.40;;
22357;SDS011;11346;50.150;8.150;2022-07-17T05:58:07;3.60;;;1.90;;
22357;SDS011;11346;50.150;8.150;2022-07-17T06:00:35;3.60;;;1.80;;
22357;SDS011;11346;50.150;8.150;2022-07-17T06:03:02;4.87;;;1.87;;
22357;SDS011;11346;50.150;8.150;2022-07-17T06:05:29;3.13;;;1.73;;
22357;SDS011;11346;50.150;8.150;2022-07-17T06:07:57;3.10;;;1.80;;
22357;SDS011;11346;50.150;8.150;2022-07-17T06:10:25;2.23;;;1.80;;
22357;SDS011;11346;50.150;8.150;2022-07-17T06:12:54;4.50;;;1.90;;
22357;SDS011;11346;50.150;8.150;2022-07-17T06:15:21;2.70;;;1.77;;
22357;SDS011;11346;50.150;8.150;2022-07-17T06:17:49;9.90;;;1.90;;
22357;SDS011;11346;50.150;8.150;2022-07-17T06:20:16;3.47;;;1.70;;
22357;SDS011;11346;50.150;8.150;2022-07-17T06:22:44;3.60;;;1.73;;
22357;SDS011;11346;50.150;8.150;2022-07-17T06:25:11;2.20;;;1.70;;
22357;SDS011;11346;50.150;8.150;2022-07-17T06:27:39;5.23;;;2.00;;
22357;SDS011;11346;50.150;8.150;2022-07-17T06:30:08;2.03;;;1.50;;
22357;SDS011;11346;50.150;8.150;2022-07-17T06:32:35;2.57;;;1.60;;
22357;SDS011;11346;50.150;8.150;2022-07-17T06:35:03;3.60;;;1.73;;
22357;SDS011;11346;50.150;8.150;2022-07-17T06:37:30;3.63;;;1.67;;
22357;SDS011;11346;50.150;8.150;2022-07-17T06:39:57;3.43;;;1.60;;
22357;SDS011;11346;50.150;8.150;2022-07-17T06:42:24;3.83;;;1.37;;
22357;SDS011;11346;50.150;8.150;2022-07-17T06:44:51;2.00;;;1.40;;
22357;SDS011;11346;50.150;8.150;2022-07-17T06:47:20;4.30;;;1.60;;
22357;SDS011;11346;50.150;8.150;2022-07-17T06:49:47;4.87;;;1.70;;
22357;SDS011;11346;50.150;8.150;2022-07-17T06:52:14;4.37;;;1.77;;
22357;SDS011;11346;50.150;8.150;2022-07-17T06:54:41;2.23;;;1.40;;
22357;SDS011;11346;50.150;8.150;2022-07-17T06:57:08;4.73;;;1.60;;
22357;SDS011;11346;50.150;8.150;2022-07-17T06:59:35;3.23;;;1.70;;
22357;SDS011;11346;50.150;8.150;2022-07-17T07:02:03;2.33;;;1.60;;
22357;SDS011;11346;50.150;8.150;2022-07-17T07:04:31;3.27;;;1.47;;
22357;SDS011;11346;50.150;8.150;2022-07-17T07:06:58;5.43;;;1.40;;
22357;SDS011;11346;50.150;8.150;2022-07-17T07:09:25;3.00;;;1.50;;
22357;SDS011;11346;50.150;8.150;2022-07-17T07:11:53;2.10;;;1.47;;
22357;SDS011;11346;50.150;8.150;2022-07-17T07:14:20;1.70;;;1.50;;
22357;SDS011;11346;50.150;8.150;2022-07-17T07:16:47;3.37;;;1.10;;
22357;SDS011;11346;50.150;8.150;2022-07-17T07:19:14;2.63;;;1.30;;
22357;SDS011;11346;50.150;8.150;2022-07-17T07:21:42;2.33;;;1.40;;
22357;SDS011;11346;50.150;8.150;2022-07-17T07:24:10;1.33;;;1.23;;
22357;SDS011;11346;50.150;8.150;2022-07-17T07:26:37;4.13;;;1.33;;
22357;SDS011;11346;50.150;8.150;2022-07-17T07:29:04;7.07;;;1.63;;
22357;SDS011;11346;50.150;8.150;2022-07-17T07:31:31;4.13;;;1.40;;
22357;SDS011;11346;50.150;8.150;2022-07-17T07:33:58;3.23;;;1.30;;
22357;SDS011;11346;50.150;8.150;2022-07-17T07:36:25;3.30;;;1.20;;
22357;SDS011;11346;50.150;8.150;2022-07-17T07:38:54;3.90;;;1.30;;
22357;SDS011;11346;50.150;8.150;2022-07-17T07:41:21;4.37;;;1.30;;
22357;SDS011;11346;50.150;8.150;2022-07-17T07:43:48;1.90;;;1.17;;
22357;SDS011;11346;50.150;8.150;2022-07-17T07:46:15;5.80;;;1.13;;
22357;SDS011;11346;50.150;8.150;2022-07-17T07:48:42;3.23;;;1.13;;
22357;SDS011;11346;50.150;8.150;2022-07-17T07:51:10;6.40;;;1.57;;
22357;SDS011;11346;50.150;8.150;2022-07-17T07:53:37;3.40;;;1.37;;
22357;SDS011;11346;50.150;8.150;2022-07-17T07:56:06;1.40;;;1.10;;
22357;SDS011;11346;50.150;8.150;2022-07-17T07:58:33;4.30;;;1.10;;
22357;SDS011;11346;50.150;8.150;2022-07-17T08:01:00;3.23;;;1.20;;
22357;SDS011;11346;50.150;8.150;2022-07-17T08:03:27;3.50;;;1.23;;
22357;SDS011;11346;50.150;8.150;2022-07-17T08:05:54;4.83;;;1.43;;
22357;SDS011;11346;50.150;8.150;2022-07-17T08:08:21;2.00;;;1.20;;
22357;SDS011;11346;50.150;8.150;2022-07-17T08:10:49;2.63;;;1.07;;
22357;SDS011;11346;50.150;8.150;2022-07-17T08:13:17;2.40;;;1.10;;
22357;SDS011;11346;50.150;8.150;2022-07-17T08:15:44;1.67;;;1.13;;
22357;SDS011;11346;50.150;8.150;2022-07-17T08:18:14;2.47;;;1.20;;
22357;SDS011;11346;50.150;8.150;2022-07-17T08:20:41;1.83;;;0.90;;
22357;SDS011;11346;50.150;8.150;2022-07-17T08:23:09;8.00;;;1.30;;
22357;SDS011;11346;50.150;8.150;2022-07-17T08:25:36;4.03;;;1.13;;
22357;SDS011;11346;50.150;8.150;2022-07-17T08:28:03;2.60;;;1.00;;
22357;SDS011;11346;50.150;8.150;2022-07-17T08:30:32;1.93;;;0.93;;
22357;SDS011;11346;50.150;8.150;2022-07-17T08:33:01;2.93;;;1.27;;
22357;SDS011;11346;50.150;8.150;2022-07-17T08:35:28;1.57;;;1.17;;
22357;SDS011;11346;50.150;8.150;2022-07-17T08:37:55;1.97;;;0.93;;
22357;SDS011;11346;50.150;8.150;2022-07-17T08:40:25;3.23;;;1.00;;
22357;SDS011;11346;50.150;8.150;2022-07-17T08:42:53;3.63;;;1.30;;
22357;SDS011;11346;50.150;8.150;2022-07-17T08:45:20;1.73;;;1.00;;
22357;SDS011;11346;50.150;8.150;2022-07-17T08:47:49;2.80;;;1.20;;
22357;SDS011;11346;50.150;8.150;2022-07-17T08:50:16;1.63;;;0.97;;
22357;SDS011;11346;50.150;8.150;2022-07-17T08:52:47;3.13;;;1.23;;
22357;SDS011;11346;50.150;8.150;2022-07-17T08:55:14;4.40;;;1.20;;
22357;SDS011;11346;50.150;8.150;2022-07-17T08:57:42;1.80;;;1.20;;
22357;SDS011;11346;50.150;8.150;2022-07-17T09:00:10;1.97;;;1.20;;
22357;SDS011;11346;50.150;8.150;2022-07-17T09:02:38;3.20;;;1.10;;
22357;SDS011;11346;50.150;8.150;2022-07-17T09:05:07;3.83;;;1.30;;
22357;SDS011;11346;50.150;8.150;2022-07-17T09:07:44;2.97;;;1.00;;
22357;SDS011;11346;50.150;8.150;2022-07-17T09:10:11;2.17;;;1.20;;
22357;SDS011;11346;50.150;8.150;2022-07-17T09:12:38;3.43;;;1.30;;
22357;SDS011;11346;50.150;8.150;2022-07-17T09:15:13;4.80;;;1.37;;
22357;SDS011;11346;50.150;8.150;2022-07-17T09:17:46;1.30;;;1.20;;
22357;SDS011;11346;50.150;8.150;2022-07-17T09:20:15;3.13;;;1.10;;
22357;SDS011;11346;50.150;8.150;2022-07-17T09:22:44;3.07;;;1.30;;
22357;SDS011;11346;50.150;8.150;2022-07-17T09:25:11;3.17;;;1.67;;
22357;SDS011;11346;50.150;8.150;2022-07-17T09:27:38;2.77;;;1.30;;
22357;SDS011;11346;50.150;8.150;2022-07-17T09:30:06;1.87;;;1.10;;
22357;SDS011;11346;50.150;8.150;2022-07-17T09:32:35;3.10;;;1.30;;
22357;SDS011;11346;50.150;8.150;2022-07-17T09:35:03;5.20;;;1.50;;
22357;SDS011;11346;50.150;8.150;2022-07-17T09:37:32;4.70;;;1.23;;
22357;SDS011;11346;50.150;8.150;2022-07-17T09:39:59;4.20;;;1.37;;
22357;SDS011;11346;50.150;8.150;2022-07-17T09:42:27;5.47;;;1.50;;
22357;SDS011;11346;50.150;8.150;2022-07-17T09:44:56;4.73;;;1.30;;
22357;SDS011;11346;50.150;8.150;2022-07-17T09:47:23;1.13;;;1.13;;
22357;SDS011;11346;50.150;8.150;2022-07-17T09:49:50;2.80;;;1.40;;
22357;SDS011;11346;50.150;8.150;2022-07-17T09:52:18;4.07;;;1.20;;
22357;SDS011;11346;50.150;8.150;2022-07-17T09:54:47;4.03;;;1.47;;
22357;SDS011;11346;50.150;8.150;2022-07-17T09:57:14;2.87;;;1.20;;
22357;SDS011;11346;50.150;8.150;2022-07-17T09:59:42;4.10;;;1.30;;
22357;SDS011;11346;50.150;8.150;2022-07-17T10:02:10;1.73;;;1.10;;
22357;SDS011;11346;50.150;8.150;2022-07-17T10:04:37;3.07;;;1.40;;
22357;SDS011;11346;50.150;8.150;2022-07-17T10:07:04;1.97;;;1.30;;
22357;SDS011;11346;50.150;8.150;2022-07-17T10:09:33;4.37;;;2.00;;
22357;SDS011;11346;50.150;8.150;2022-07-17T10:12:02;3.17;;;1.30;;
22357;SDS011;11346;50.150;8.150;2022-07-17T10:14:30;1.80;;;1.33;;
22357;SDS011;11346;50.150;8.150;2022-07-17T10:17:05;4.20;;;1.10;;
22357;SDS011;11346;50.150;8.150;2022-07-17T10:19:32;1.70;;;1.60;;
22357;SDS011;11346;50.150;8.150;2022-07-17T10:22:00;4.57;;;1.40;;
22357;SDS011;11346;50.150;8.150;2022-07-17T10:24:28;2.57;;;1.40;;
22357;SDS011;11346;50.150;8.150;2022-07-17T10:26:56;3.80;;;1.50;;
22357;SDS011;11346;50.150;8.150;2022-07-17T10:29:31;3.27;;;1.30;;
22357;SDS011;11346;50.150;8.150;2022-07-17T10:31:59;1.93;;;1.50;;
22357;SDS011;11346;50.150;8.150;2022-07-17T10:34:36;3.27;;;1.20;;
22357;SDS011;11346;50.150;8.150;2022-07-17T10:37:13;1.37;;;1.20;;
22357;SDS011;11346;50.150;8.150;2022-07-17T10:39:50;1.63;;;1.47;;
22357;SDS011;11346;50.150;8.150;2022-07-17T10:42:32;3.20;;;1.20;;
22357;SDS011;11346;50.150;8.150;2022-07-17T10:45:09;5.83;;;1.70;;
22357;SDS011;11346;50.150;8.150;2022-07-17T10:47:46;3.27;;;1.40;;
22357;SDS011;11346;50.150;8.150;2022-07-17T10:50:13;3.20;;;1.50;;
22357;SDS011;11346;50.150;8.150;2022-07-17T10:52:41;1.83;;;1.50;;
22357;SDS011;11346;50.150;8.150;2022-07-17T10:55:17;2.37;;;1.30;;
22357;SDS011;11346;50.150;8.150;2022-07-17T10:57:44;2.63;;;1.17;;
22357;SDS011;11346;50.150;8.150;2022-07-17T11:00:14;4.50;;;1.33;;
22357;SDS011;11346;50.150;8.150;2022-07-17T11:02:42;1.87;;;1.03;;
22357;SDS011;11346;50.150;8.150;2022-07-17T11:05:10;1.97;;;1.00;;
22357;SDS011;11346;50.150;8.150;2022-07-17T11:07:47;3.70;;;1.10;;
22357;SDS011;11346;50.150;8.150;2022-07-17T11:10:15;4.43;;;0.90;;
22357;SDS011;11346;50.150;8.150;2022-07-17T11:12:42;2.07;;;1.10;;
22357;SDS011;11346;50.150;8.150;2022-07-17T11:15:09;6.60;;;1.20;;
22357;SDS011;11346;50.150;8.150;2022-07-17T11:17:38;2.30;;;0.90;;
22357;SDS011;11346;50.150;8.150;2022-07-17T11:20:05;1.77;;;0.80;;
22357;SDS011;11346;50.150;8.150;2022-07-17T11:22:32;2.50;;;0.80;;
22357;SDS011;11346;50.150;8.150;2022-07-17T11:25:00;3.70;;;1.20;;
22357;SDS011;11346;50.150;8.150;2022-07-17T11:27:27;1.33;;;0.80;;
22357;SDS011;11346;50.150;8.150;2022-07-17T11:29:55;1.83;;;0.90;;
22357;SDS011;11346;50.150;8.150;2022-07-17T11:32:23;2.30;;;0.93;;
22357;SDS011;11346;50.150;8.150;2022-07-17T11:34:53;2.87;;;1.00;;
22357;SDS011;11346;50.150;8.150;2022-07-17T11:37:20;2.40;;;1.00;;
22357;SDS011;11346;50.150;8.150;2022-07-17T11:39:49;2.10;;;1.00;;
22357;SDS011;11346;50.150;8.150;2022-07-17T11:42:17;2.73;;;1.07;;
22357;SDS011;11346;50.150;8.150;2022-07-17T11:44:44;2.13;;;1.00;;
22357;SDS011;11346;50.150;8.150;2022-07-17T11:47:12;1.20;;;0.90;;
22357;SDS011;11346;50.150;8.150;2022-07-17T11:49:39;1.93;;;1.07;;
22357;SDS011;11346;50.150;8.150;2022-07-17T11:52:09;2.53;;;1.10;;
22357;SDS011;11346;50.150;8.150;2022-07-17T11:54:43;5.10;;;0.97;;
22357;SDS011;11346;50.150;8.150;2022-07-17T11:57:10;3.20;;;1.10;;
22357;SDS011;11346;50.150;8.150;2022-07-17T11:59:37;2.83;;;2.60;;
22357;SDS011;11346;50.150;8.150;2022-07-17T12:02:08;2.00;;;0.90;;
22357;SDS011;11346;50.150;8.150;2022-07-17T12:04:36;0.80;;;0.80;;
22357;SDS011;11346;50.150;8.150;2022-07-17T12:07:03;1.20;;;0.80;;
22357;SDS011;11346;50.150;8.150;2022-07-17T12:09:32;2.03;;;0.87;;
22357;SDS011;11346;50.150;8.150;2022-07-17T12:11:59;3.80;;;1.23;;
22357;SDS011;11346;50.150;8.150;2022-07-17T12:14:27;2.70;;;0.90;;
22357;SDS011;11346;50.150;8.150;2022-07-17T12:16:55;1.83;;;1.00;;
22357;SDS011;11346;50.150;8.150;2022-07-17T12:19:23;2.00;;;1.10;;
22357;SDS011;11346;50.150;8.150;2022-07-17T12:21:54;2.03;;;0.90;;
22357;SDS011;11346;50.150;8.150;2022-07-17T12:24:23;3.13;;;0.90;;
22357;SDS011;11346;50.150;8.150;2022-07-17T12:26:52;1.80;;;0.93;;
22357;SDS011;11346;50.150;8.150;2022-07-17T12:29:20;1.83;;;0.90;;
22357;SDS011;11346;50.150;8.150;2022-07-17T12:31:47;1.43;;;0.90;;
22357;SDS011;11346;50.150;8.150;2022-07-17T12:34:14;1.73;;;1.10;;
22357;SDS011;11346;50.150;8.150;2022-07-17T12:36:41;1.83;;;0.90;;
22357;SDS011;11346;50.150;8.150;2022-07-17T12:39:08;1.67;;;1.07;;
22357;SDS011;11346;50.150;8.150;2022-07-17T12:41:36;2.30;;;0.70;;
22357;SDS011;11346;50.150;8.150;2022-07-17T12:44:06;1.13;;;0.87;;
22357;SDS011;11346;50.150;8.150;2022-07-17T12:46:33;1.93;;;0.90;;
22357;SDS011;11346;50.150;8.150;2022-07-17T12:49:00;2.80;;;0.80;;
22357;SDS011;11346;50.150;8.150;2022-07-17T12:51:28;1.60;;;1.00;;
22357;SDS011;11346;50.150;8.150;2022-07-17T12:53:56;2.27;;;0.90;;
22357;SDS011;11346;50.150;8.150;2022-07-17T12:56:23;1.33;;;0.93;;
22357;SDS011;11346;50.150;8.150;2022-07-17T12:58:50;0.70;;;0.70;;
22357;SDS011;11346;50.150;8.150;2022-07-17T13:01:19;3.97;;;0.90;;
22357;SDS011;11346;50.150;8.150;2022-07-17T13:03:46;2.20;;;0.80;;
22357;SDS011;11346;50.150;8.150;2022-07-17T13:06:14;1.50;;;0.70;;
22357;SDS011;11346;50.150;8.150;2022-07-17T13:08:41;0.87;;;0.77;;
22357;SDS011;11346;50.150;8.150;2022-07-17T13:11:08;1.00;;;0.70;;
22357;SDS011;11346;50.150;8.150;2022-07-17T13:13:35;2.37;;;0.83;;
22357;SDS011;11346;50.150;8.150;2022-07-17T13:16:02;1.03;;;0.80;;
22357;SDS011;11346;50.150;8.150;2022-07-17T13:18:31;1.00;;;1.00;;
22357;SDS011;11346;50.150;8.150;2022-07-17T13:20:58;0.67;;;0.60;;
22357;SDS011;11346;50.150;8.150;2022-07-17T13:23:25;0.63;;;0.63;;
22357;SDS011;11346;50.150;8.150;2022-07-17T13:25:52;3.23;;;0.80;;
22357;SDS011;11346;50.150;8.150;2022-07-17T13:28:20;0.80;;;0.80;;
22357;SDS011;11346;50.150;8.150;2022-07-17T13:30:47;0.90;;;0.60;;
22357;SDS011;11346;50.150;8.150;2022-07-17T13:33:14;4.53;;;1.17;;
22357;SDS011;11346;50.150;8.150;2022-07-17T13:35:42;1.77;;;0.90;;
22357;SDS011;11346;50.150;8.150;2022-07-17T13:38:10;2.07;;;1.13;;
22357;SDS011;11346;50.150;8.150;2022-07-17T13:40:37;0.70;;;0.70;;
22357;SDS011;11346;50.150;8.150;2022-07-17T13:43:04;1.10;;;1.00;;
22357;SDS011;11346;50.150;8.150;2022-07-17T13:45:31;1.43;;;1.10;;
22357;SDS011;11346;50.150;8.150;2022-07-17T13:47:59;1.10;;;0.90;;
22357;SDS011;11346;50.150;8.150;2022-07-17T13:50:26;0.90;;;0.90;;
22357;SDS011;11346;50.150;8.150;2022-07-17T13:52:55;1.87;;;0.90;;
22357;SDS011;11346;50.150;8.150;2022-07-17T13:55:22;1.00;;;0.90;;
22357;SDS011;11346;50.150;8.150;2022-07-17T13:57:49;4.27;;;0.80;;
22357;SDS011;11346;50.150;8.150;2022-07-17T14:00:16;2.10;;;1.00;;
22357;SDS011;11346;50.150;8.150;2022-07-17T14:02:44;1.10;;;1.00;;
22357;SDS011;11346;50.150;8.150;2022-07-17T14:05:11;1.00;;;0.90;;
22357;SDS011;11346;50.150;8.150;2022-07-17T14:07:38;3.67;;;0.90;;
22357;SDS011;11346;50.150;8.150;2022-07-17T14:10:07;2.30;;;1.07;;
22357;SDS011;11346;50.150;8.150;2022-07-17T14:12:35;1.90;;;0.80;;
22357;SDS011;11346;50.150;8.150;2022-07-17T14:15:02;1.07;;;1.00;;
22357;SDS011;11346;50.150;8.150;2022-07-17T14:17:32;2.23;;;1.10;;
22357;SDS011;11346;50.150;8.150;2022-07-17T14:20:00;1.27;;;1.20;;
22357;SDS011;11346;50.150;8.150;2022-07-17T14:22:27;1.63;;;0.80;;
22357;SDS011;11346;50.150;8.150;2022-07-17T14:24:54;0.70;;;0.70;;
22357;SDS011;11346;50.150;8.150;2022-07-17T14:27:23;3.00;;;1.00;;
22357;SDS011;11346;50.150;8.150;2022-07-17T14:29:50;4.27;;;0.90;;
22357;SDS011;11346;50.150;8.150;2022-07-17T14:32:17;1.77;;;0.90;;
22357;SDS011;11346;50.150;8.150;2022-07-17T14:34:47;0.90;;;0.90;;
22357;SDS011;11346;50.150;8.150;2022-07-17T14:37:14;2.07;;;1.00;;
22357;SDS011;11346;50.150;8.150;2022-07-17T14:39:41;1.10;;;0.77;;
22357;SDS011;11346;50.150;8.150;2022-07-17T14:42:09;1.17;;;0.93;;
22357;SDS011;11346;50.150;8.150;2022-07-17T14:44:37;3.33;;;1.20;;
22357;SDS011;11346;50.150;8.150;2022-07-17T14:47:05;1.63;;;1.03;;
22357;SDS011;11346;50.150;8.150;2022-07-17T14:49:32;0.80;;;0.80;;
22357;SDS011;11346;50.150;8.150;2022-07-17T14:52:00;2.87;;;0.80;;